Terminal Aerodrome Forecast
Issued by NWS

Home | Current Version | Previous Version | Graphics & Text | Print | Product List | Glossary On
Versions: 1 2 3 4 5 6 7 8 9 10 11 12 13 14 15 16 17 18 19 20 21 22 23 24 25 26 27 28 29 30 31 32 33
000
FTUS43 KLOT 181130
TAFMDW
TAF
KMDW 181130Z 1812/1918 17004KT 4SM BR SKC
      TEMPO 1812/1814 3/4SM BR BCFG
     FM181500 17010KT P6SM SCT250
     FM181800 18015G25KT P6SM FEW130 SCT250
     FM190000 18015G25KT P6SM BKN250 WS020/20060KT
     FM190600 19012KT 5SM -SHRA OVC035
     FM190900 18007KT 3SM -SHRA BR SCT008 OVC012
     FM191500 15006KT 2SM -SHRA BR OVC008=

USA.gov is the U.S. government's official web portal to all federal, state and local government web resources and services.